sensor_id;sensor_type;location;lat;lon;timestamp;P1;durP1;ratioP1;P2;durP2;ratioP2
59514;SDS011;46082;43.034;-0.072;2022-10-16T00:02:19;1.20;;;1.10;;
59514;SDS011;46082;43.034;-0.072;2022-10-16T00:04:45;1.85;;;0.88;;
59514;SDS011;46082;43.034;-0.072;2022-10-16T00:07:12;1.60;;;1.30;;
59514;SDS011;46082;43.034;-0.072;2022-10-16T00:09:38;4.30;;;1.17;;
59514;SDS011;46082;43.034;-0.072;2022-10-16T00:12:04;1.38;;;1.02;;
59514;SDS011;46082;43.034;-0.072;2022-10-16T00:14:31;1.23;;;1.10;;
59514;SDS011;46082;43.034;-0.072;2022-10-16T00:16:57;1.20;;;1.10;;
59514;SDS011;46082;43.034;-0.072;2022-10-16T00:19:24;1.10;;;1.00;;
59514;SDS011;46082;43.034;-0.072;2022-10-16T00:21:50;1.25;;;1.20;;
59514;SDS011;46082;43.034;-0.072;2022-10-16T00:24:16;1.02;;;1.02;;
59514;SDS011;46082;43.034;-0.072;2022-10-16T00:26:42;1.38;;;1.27;;
59514;SDS011;46082;43.034;-0.072;2022-10-16T00:29:08;1.17;;;1.08;;
59514;SDS011;46082;43.034;-0.072;2022-10-16T00:31:34;1.92;;;1.05;;
59514;SDS011;46082;43.034;-0.072;2022-10-16T00:34:01;1.15;;;1.00;;
59514;SDS011;46082;43.034;-0.072;2022-10-16T00:36:27;2.85;;;1.23;;
59514;SDS011;46082;43.034;-0.072;2022-10-16T00:38:54;1.23;;;1.13;;
59514;SDS011;46082;43.034;-0.072;2022-10-16T00:41:21;1.42;;;1.33;;
59514;SDS011;46082;43.034;-0.072;2022-10-16T00:48:40;1.30;;;1.20;;
59514;SDS011;46082;43.034;-0.072;2022-10-16T00:51:06;1.42;;;1.23;;
59514;SDS011;46082;43.034;-0.072;2022-10-16T00:53:33;1.10;;;1.00;;
59514;SDS011;46082;43.034;-0.072;2022-10-16T00:55:59;1.20;;;1.17;;
59514;SDS011;46082;43.034;-0.072;2022-10-16T00:58:25;1.75;;;1.38;;
59514;SDS011;46082;43.034;-0.072;2022-10-16T01:00:51;3.28;;;1.25;;
59514;SDS011;46082;43.034;-0.072;2022-10-16T01:03:31;1.00;;;1.00;;
59514;SDS011;46082;43.034;-0.072;2022-10-16T01:06:09;3.53;;;1.20;;
59514;SDS011;46082;43.034;-0.072;2022-10-16T01:11:44;1.10;;;1.10;;
59514;SDS011;46082;43.034;-0.072;2022-10-16T01:14:08;1.30;;;1.20;;
59514;SDS011;46082;43.034;-0.072;2022-10-16T01:16:44;1.15;;;1.15;;
59514;SDS011;46082;43.034;-0.072;2022-10-16T01:19:16;1.17;;;1.05;;
59514;SDS011;46082;43.034;-0.072;2022-10-16T01:21:46;1.30;;;1.20;;
59514;SDS011;46082;43.034;-0.072;2022-10-16T01:24:19;1.33;;;1.27;;
59514;SDS011;46082;43.034;-0.072;2022-10-16T01:29:44;5.07;;;0.93;;
59514;SDS011;46082;43.034;-0.072;2022-10-16T01:32:16;1.20;;;1.10;;
59514;SDS011;46082;43.034;-0.072;2022-10-16T01:37:13;1.90;;;1.58;;
59514;SDS011;46082;43.034;-0.072;2022-10-16T01:39:40;1.25;;;1.20;;
59514;SDS011;46082;43.034;-0.072;2022-10-16T01:42:09;1.48;;;1.15;;
59514;SDS011;46082;43.034;-0.072;2022-10-16T01:44:37;5.93;;;1.20;;
59514;SDS011;46082;43.034;-0.072;2022-10-16T01:47:04;1.10;;;1.10;;
59514;SDS011;46082;43.034;-0.072;2022-10-16T01:49:32;1.35;;;1.25;;
59514;SDS011;46082;43.034;-0.072;2022-10-16T01:51:59;1.30;;;1.20;;
59514;SDS011;46082;43.034;-0.072;2022-10-16T01:54:28;2.35;;;1.02;;
59514;SDS011;46082;43.034;-0.072;2022-10-16T01:56:56;5.07;;;1.40;;
59514;SDS011;46082;43.034;-0.072;2022-10-16T01:59:23;1.88;;;1.33;;
59514;SDS011;46082;43.034;-0.072;2022-10-16T02:01:58;1.05;;;1.05;;
59514;SDS011;46082;43.034;-0.072;2022-10-16T02:04:36;1.20;;;1.10;;
59514;SDS011;46082;43.034;-0.072;2022-10-16T02:07:03;1.42;;;1.10;;
59514;SDS011;46082;43.034;-0.072;2022-10-16T02:09:30;1.52;;;1.23;;
59514;SDS011;46082;43.034;-0.072;2022-10-16T02:11:58;2.10;;;1.23;;
59514;SDS011;46082;43.034;-0.072;2022-10-16T02:14:27;2.47;;;1.20;;
59514;SDS011;46082;43.034;-0.072;2022-10-16T02:16:54;1.33;;;1.23;;
59514;SDS011;46082;43.034;-0.072;2022-10-16T02:19:20;1.48;;;1.38;;
59514;SDS011;46082;43.034;-0.072;2022-10-16T02:27:01;2.20;;;1.30;;
59514;SDS011;46082;43.034;-0.072;2022-10-16T02:31:57;1.27;;;1.17;;
59514;SDS011;46082;43.034;-0.072;2022-10-16T02:34:25;1.55;;;1.30;;
59514;SDS011;46082;43.034;-0.072;2022-10-16T02:36:51;1.23;;;1.17;;
59514;SDS011;46082;43.034;-0.072;2022-10-16T02:39:18;1.30;;;1.20;;
59514;SDS011;46082;43.034;-0.072;2022-10-16T02:41:45;2.17;;;1.38;;
59514;SDS011;46082;43.034;-0.072;2022-10-16T02:44:11;1.20;;;1.20;;
59514;SDS011;46082;43.034;-0.072;2022-10-16T02:46:38;1.00;;;1.00;;
59514;SDS011;46082;43.034;-0.072;2022-10-16T02:49:04;1.42;;;1.30;;
59514;SDS011;46082;43.034;-0.072;2022-10-16T02:51:30;6.05;;;1.50;;
59514;SDS011;46082;43.034;-0.072;2022-10-16T02:53:56;1.13;;;1.02;;
59514;SDS011;46082;43.034;-0.072;2022-10-16T02:56:23;1.42;;;1.33;;
59514;SDS011;46082;43.034;-0.072;2022-10-16T02:58:49;1.45;;;1.10;;
59514;SDS011;46082;43.034;-0.072;2022-10-16T03:01:15;3.58;;;1.60;;
59514;SDS011;46082;43.034;-0.072;2022-10-16T03:03:42;1.20;;;1.10;;
59514;SDS011;46082;43.034;-0.072;2022-10-16T03:06:08;2.03;;;1.15;;
59514;SDS011;46082;43.034;-0.072;2022-10-16T03:08:34;1.40;;;1.30;;
59514;SDS011;46082;43.034;-0.072;2022-10-16T03:11:00;1.20;;;1.13;;
59514;SDS011;46082;43.034;-0.072;2022-10-16T03:13:27;1.00;;;1.00;;
59514;SDS011;46082;43.034;-0.072;2022-10-16T03:15:53;1.45;;;1.13;;
59514;SDS011;46082;43.034;-0.072;2022-10-16T03:18:19;1.42;;;1.33;;
59514;SDS011;46082;43.034;-0.072;2022-10-16T03:20:45;1.40;;;1.30;;
59514;SDS011;46082;43.034;-0.072;2022-10-16T03:23:11;1.67;;;1.52;;
59514;SDS011;46082;43.034;-0.072;2022-10-16T03:25:37;1.60;;;1.38;;
59514;SDS011;46082;43.034;-0.072;2022-10-16T03:28:03;1.10;;;1.10;;
59514;SDS011;46082;43.034;-0.072;2022-10-16T03:30:29;1.20;;;1.10;;
59514;SDS011;46082;43.034;-0.072;2022-10-16T03:32:56;1.52;;;1.42;;
59514;SDS011;46082;43.034;-0.072;2022-10-16T03:35:22;3.65;;;1.45;;
59514;SDS011;46082;43.034;-0.072;2022-10-16T03:37:49;1.40;;;1.30;;
59514;SDS011;46082;43.034;-0.072;2022-10-16T03:40:16;1.65;;;1.10;;
59514;SDS011;46082;43.034;-0.072;2022-10-16T03:42:42;1.52;;;1.30;;
59514;SDS011;46082;43.034;-0.072;2022-10-16T03:45:09;1.40;;;1.30;;
59514;SDS011;46082;43.034;-0.072;2022-10-16T03:47:35;1.67;;;1.50;;
59514;SDS011;46082;43.034;-0.072;2022-10-16T03:50:02;1.45;;;1.25;;
59514;SDS011;46082;43.034;-0.072;2022-10-16T03:52:28;1.27;;;1.20;;
59514;SDS011;46082;43.034;-0.072;2022-10-16T03:54:54;1.98;;;1.27;;
59514;SDS011;46082;43.034;-0.072;2022-10-16T03:57:21;1.45;;;1.17;;
59514;SDS011;46082;43.034;-0.072;2022-10-16T03:59:47;1.48;;;1.33;;
59514;SDS011;46082;43.034;-0.072;2022-10-16T04:02:13;1.25;;;1.15;;
59514;SDS011;46082;43.034;-0.072;2022-10-16T04:04:39;1.25;;;1.15;;
59514;SDS011;46082;43.034;-0.072;2022-10-16T04:07:05;1.60;;;1.50;;
59514;SDS011;46082;43.034;-0.072;2022-10-16T04:09:31;1.33;;;1.23;;
59514;SDS011;46082;43.034;-0.072;2022-10-16T04:11:57;1.40;;;1.30;;
59514;SDS011;46082;43.034;-0.072;2022-10-16T04:14:23;1.10;;;1.02;;
59514;SDS011;46082;43.034;-0.072;2022-10-16T04:16:49;2.08;;;1.98;;
59514;SDS011;46082;43.034;-0.072;2022-10-16T04:19:16;1.90;;;1.30;;
59514;SDS011;46082;43.034;-0.072;2022-10-16T04:21:42;1.13;;;1.08;;
59514;SDS011;46082;43.034;-0.072;2022-10-16T04:24:08;1.42;;;1.33;;
59514;SDS011;46082;43.034;-0.072;2022-10-16T04:26:35;4.60;;;1.75;;
59514;SDS011;46082;43.034;-0.072;2022-10-16T04:29:01;1.50;;;1.40;;
59514;SDS011;46082;43.034;-0.072;2022-10-16T04:31:28;2.85;;;1.50;;
59514;SDS011;46082;43.034;-0.072;2022-10-16T04:33:54;1.40;;;1.30;;
59514;SDS011;46082;43.034;-0.072;2022-10-16T04:36:20;1.35;;;1.25;;
59514;SDS011;46082;43.034;-0.072;2022-10-16T04:38:46;1.58;;;1.38;;
59514;SDS011;46082;43.034;-0.072;2022-10-16T04:41:12;2.40;;;1.42;;
59514;SDS011;46082;43.034;-0.072;2022-10-16T04:43:38;1.88;;;1.35;;
59514;SDS011;46082;43.034;-0.072;2022-10-16T04:46:04;1.35;;;1.25;;
59514;SDS011;46082;43.034;-0.072;2022-10-16T04:48:31;1.40;;;1.30;;
59514;SDS011;46082;43.034;-0.072;2022-10-16T04:50:57;1.30;;;1.23;;
59514;SDS011;46082;43.034;-0.072;2022-10-16T04:53:23;1.48;;;1.38;;
59514;SDS011;46082;43.034;-0.072;2022-10-16T04:55:49;1.40;;;1.30;;
59514;SDS011;46082;43.034;-0.072;2022-10-16T04:58:16;1.30;;;1.20;;
59514;SDS011;46082;43.034;-0.072;2022-10-16T05:00:43;1.65;;;1.50;;
59514;SDS011;46082;43.034;-0.072;2022-10-16T05:03:09;2.45;;;1.27;;
59514;SDS011;46082;43.034;-0.072;2022-10-16T05:05:36;1.50;;;1.40;;
59514;SDS011;46082;43.034;-0.072;2022-10-16T05:08:02;1.40;;;1.30;;
59514;SDS011;46082;43.034;-0.072;2022-10-16T05:10:29;1.30;;;1.20;;
59514;SDS011;46082;43.034;-0.072;2022-10-16T05:12:55;1.40;;;1.30;;
59514;SDS011;46082;43.034;-0.072;2022-10-16T05:15:21;1.38;;;1.27;;
59514;SDS011;46082;43.034;-0.072;2022-10-16T05:17:51;1.42;;;1.33;;
59514;SDS011;46082;43.034;-0.072;2022-10-16T05:20:17;2.45;;;1.30;;
59514;SDS011;46082;43.034;-0.072;2022-10-16T05:22:43;1.58;;;1.42;;
59514;SDS011;46082;43.034;-0.072;2022-10-16T05:25:09;1.85;;;1.13;;
59514;SDS011;46082;43.034;-0.072;2022-10-16T05:27:36;1.40;;;1.30;;
59514;SDS011;46082;43.034;-0.072;2022-10-16T05:30:02;2.42;;;1.10;;
59514;SDS011;46082;43.034;-0.072;2022-10-16T05:32:28;1.10;;;1.10;;
59514;SDS011;46082;43.034;-0.072;2022-10-16T05:34:57;3.13;;;1.50;;
59514;SDS011;46082;43.034;-0.072;2022-10-16T05:37:25;1.23;;;1.20;;
59514;SDS011;46082;43.034;-0.072;2022-10-16T05:39:51;3.58;;;1.60;;
59514;SDS011;46082;43.034;-0.072;2022-10-16T05:42:17;1.33;;;1.23;;
59514;SDS011;46082;43.034;-0.072;2022-10-16T05:44:44;1.30;;;1.20;;
59514;SDS011;46082;43.034;-0.072;2022-10-16T05:47:11;5.00;;;1.50;;
59514;SDS011;46082;43.034;-0.072;2022-10-16T05:49:39;1.55;;;1.45;;
59514;SDS011;46082;43.034;-0.072;2022-10-16T05:52:05;5.25;;;1.45;;
59514;SDS011;46082;43.034;-0.072;2022-10-16T05:54:31;2.95;;;1.45;;
59514;SDS011;46082;43.034;-0.072;2022-10-16T05:56:57;1.65;;;1.55;;
59514;SDS011;46082;43.034;-0.072;2022-10-16T05:59:23;1.60;;;1.50;;
59514;SDS011;46082;43.034;-0.072;2022-10-16T06:01:49;2.42;;;1.42;;
59514;SDS011;46082;43.034;-0.072;2022-10-16T06:04:15;2.70;;;1.58;;
59514;SDS011;46082;43.034;-0.072;2022-10-16T06:06:41;1.42;;;1.40;;
59514;SDS011;46082;43.034;-0.072;2022-10-16T06:09:09;1.42;;;1.33;;
59514;SDS011;46082;43.034;-0.072;2022-10-16T06:11:35;2.50;;;1.50;;
59514;SDS011;46082;43.034;-0.072;2022-10-16T06:14:02;1.60;;;1.50;;
59514;SDS011;46082;43.034;-0.072;2022-10-16T06:16:31;2.58;;;1.65;;
59514;SDS011;46082;43.034;-0.072;2022-10-16T06:18:58;1.80;;;1.63;;
59514;SDS011;46082;43.034;-0.072;2022-10-16T06:21:27;2.13;;;1.23;;
59514;SDS011;46082;43.034;-0.072;2022-10-16T06:23:54;2.60;;;1.73;;
59514;SDS011;46082;43.034;-0.072;2022-10-16T06:26:22;1.40;;;1.30;;
59514;SDS011;46082;43.034;-0.072;2022-10-16T06:28:48;1.38;;;1.27;;
59514;SDS011;46082;43.034;-0.072;2022-10-16T06:31:15;1.17;;;1.15;;
59514;SDS011;46082;43.034;-0.072;2022-10-16T06:33:41;2.58;;;1.65;;
59514;SDS011;46082;43.034;-0.072;2022-10-16T06:36:09;2.97;;;1.40;;
59514;SDS011;46082;43.034;-0.072;2022-10-16T06:38:35;1.70;;;1.60;;
59514;SDS011;46082;43.034;-0.072;2022-10-16T06:41:02;1.30;;;1.20;;
59514;SDS011;46082;43.034;-0.072;2022-10-16T06:43:28;1.98;;;1.52;;
59514;SDS011;46082;43.034;-0.072;2022-10-16T06:45:58;1.63;;;1.50;;
59514;SDS011;46082;43.034;-0.072;2022-10-16T06:48:24;1.55;;;1.45;;
59514;SDS011;46082;43.034;-0.072;2022-10-16T06:50:57;4.43;;;1.70;;
59514;SDS011;46082;43.034;-0.072;2022-10-16T06:53:23;2.08;;;1.58;;
59514;SDS011;46082;43.034;-0.072;2022-10-16T06:55:50;1.55;;;1.42;;
59514;SDS011;46082;43.034;-0.072;2022-10-16T06:58:16;1.70;;;1.38;;
59514;SDS011;46082;43.034;-0.072;2022-10-16T07:00:42;1.50;;;1.20;;
59514;SDS011;46082;43.034;-0.072;2022-10-16T07:03:08;1.50;;;1.38;;
59514;SDS011;46082;43.034;-0.072;2022-10-16T07:05:38;2.28;;;1.85;;
59514;SDS011;46082;43.034;-0.072;2022-10-16T07:08:04;2.03;;;1.73;;
59514;SDS011;46082;43.034;-0.072;2022-10-16T07:10:31;2.03;;;1.45;;
59514;SDS011;46082;43.034;-0.072;2022-10-16T07:12:57;2.35;;;1.63;;
59514;SDS011;46082;43.034;-0.072;2022-10-16T07:15:24;1.70;;;1.60;;
59514;SDS011;46082;43.034;-0.072;2022-10-16T07:17:50;1.83;;;1.73;;
59514;SDS011;46082;43.034;-0.072;2022-10-16T07:20:16;2.88;;;1.65;;
59514;SDS011;46082;43.034;-0.072;2022-10-16T07:22:42;2.03;;;1.60;;
59514;SDS011;46082;43.034;-0.072;2022-10-16T07:25:09;2.30;;;1.48;;
59514;SDS011;46082;43.034;-0.072;2022-10-16T07:27:36;1.40;;;1.30;;
59514;SDS011;46082;43.034;-0.072;2022-10-16T07:30:02;1.92;;;1.70;;
59514;SDS011;46082;43.034;-0.072;2022-10-16T07:32:28;8.60;;;1.90;;
59514;SDS011;46082;43.034;-0.072;2022-10-16T07:34:54;2.45;;;1.58;;
59514;SDS011;46082;43.034;-0.072;2022-10-16T07:37:21;1.40;;;1.30;;
59514;SDS011;46082;43.034;-0.072;2022-10-16T07:39:47;2.03;;;1.73;;
59514;SDS011;46082;43.034;-0.072;2022-10-16T07:42:13;1.60;;;1.50;;
59514;SDS011;46082;43.034;-0.072;2022-10-16T07:44:39;1.40;;;1.30;;
59514;SDS011;46082;43.034;-0.072;2022-10-16T07:47:06;1.48;;;1.42;;
59514;SDS011;46082;43.034;-0.072;2022-10-16T07:49:32;1.75;;;1.27;;
59514;SDS011;46082;43.034;-0.072;2022-10-16T07:51:58;1.52;;;1.40;;
59514;SDS011;46082;43.034;-0.072;2022-10-16T07:54:24;1.65;;;1.55;;
59514;SDS011;46082;43.034;-0.072;2022-10-16T07:56:50;1.80;;;1.70;;
59514;SDS011;46082;43.034;-0.072;2022-10-16T07:59:16;1.77;;;1.45;;
59514;SDS011;46082;43.034;-0.072;2022-10-16T08:01:42;1.52;;;1.42;;
59514;SDS011;46082;43.034;-0.072;2022-10-16T08:04:09;2.58;;;1.70;;
59514;SDS011;46082;43.034;-0.072;2022-10-16T08:06:36;3.75;;;1.60;;
59514;SDS011;46082;43.034;-0.072;2022-10-16T08:09:02;3.83;;;1.88;;
59514;SDS011;46082;43.034;-0.072;2022-10-16T08:11:29;1.92;;;1.83;;
59514;SDS011;46082;43.034;-0.072;2022-10-16T08:13:55;1.52;;;1.40;;
59514;SDS011;46082;43.034;-0.072;2022-10-16T08:16:21;2.33;;;1.60;;
59514;SDS011;46082;43.034;-0.072;2022-10-16T08:18:47;2.00;;;1.70;;
59514;SDS011;46082;43.034;-0.072;2022-10-16T08:21:15;2.30;;;1.70;;
59514;SDS011;46082;43.034;-0.072;2022-10-16T08:23:41;2.40;;;2.20;;
59514;SDS011;46082;43.034;-0.072;2022-10-16T08:26:09;2.85;;;1.65;;
59514;SDS011;46082;43.034;-0.072;2022-10-16T08:28:35;3.38;;;1.67;;
59514;SDS011;46082;43.034;-0.072;2022-10-16T08:31:06;1.63;;;1.52;;
59514;SDS011;46082;43.034;-0.072;2022-10-16T08:33:32;2.53;;;1.65;;
59514;SDS011;46082;43.034;-0.072;2022-10-16T08:36:00;2.75;;;1.50;;
59514;SDS011;46082;43.034;-0.072;2022-10-16T08:38:26;3.78;;;1.58;;
59514;SDS011;46082;43.034;-0.072;2022-10-16T08:40:52;2.80;;;1.52;;
59514;SDS011;46082;43.034;-0.072;2022-10-16T08:51:01;2.58;;;1.42;;
59514;SDS011;46082;43.034;-0.072;2022-10-16T08:56:24;3.85;;;1.77;;
59514;SDS011;46082;43.034;-0.072;2022-10-16T08:58:51;1.55;;;1.45;;
59514;SDS011;46082;43.034;-0.072;2022-10-16T09:01:18;3.78;;;1.65;;
59514;SDS011;46082;43.034;-0.072;2022-10-16T09:09:03;3.58;;;1.55;;
59514;SDS011;46082;43.034;-0.072;2022-10-16T09:16:29;1.63;;;1.50;;
59514;SDS011;46082;43.034;-0.072;2022-10-16T09:19:01;4.53;;;1.73;;
59514;SDS011;46082;43.034;-0.072;2022-10-16T09:21:30;3.05;;;1.85;;
59514;SDS011;46082;43.034;-0.072;2022-10-16T09:24:00;2.72;;;1.95;;
59514;SDS011;46082;43.034;-0.072;2022-10-16T09:26:30;2.95;;;1.40;;
59514;SDS011;46082;43.034;-0.072;2022-10-16T09:28:56;2.45;;;1.65;;
59514;SDS011;46082;43.034;-0.072;2022-10-16T09:31:23;3.15;;;1.40;;
59514;SDS011;46082;43.034;-0.072;2022-10-16T09:33:51;2.75;;;1.70;;
59514;SDS011;46082;43.034;-0.072;2022-10-16T09:36:19;3.00;;;1.40;;
59514;SDS011;46082;43.034;-0.072;2022-10-16T09:38:46;1.70;;;1.35;;
59514;SDS011;46082;43.034;-0.072;2022-10-16T09:41:16;3.22;;;1.60;;
59514;SDS011;46082;43.034;-0.072;2022-10-16T09:43:47;2.55;;;2.17;;
59514;SDS011;46082;43.034;-0.072;2022-10-16T09:46:34;2.10;;;1.50;;
59514;SDS011;46082;43.034;-0.072;2022-10-16T09:49:05;2.15;;;1.50;;
59514;SDS011;46082;43.034;-0.072;2022-10-16T09:51:35;2.45;;;1.63;;
59514;SDS011;46082;43.034;-0.072;2022-10-16T09:54:02;1.73;;;1.63;;
59514;SDS011;46082;43.034;-0.072;2022-10-16T09:56:38;2.95;;;1.60;;
59514;SDS011;46082;43.034;-0.072;2022-10-16T09:59:11;2.08;;;1.60;;
59514;SDS011;46082;43.034;-0.072;2022-10-16T10:01:42;3.85;;;1.83;;
59514;SDS011;46082;43.034;-0.072;2022-10-16T10:04:10;2.10;;;1.40;;
59514;SDS011;46082;43.034;-0.072;2022-10-16T10:06:37;1.20;;;1.10;;
59514;SDS011;46082;43.034;-0.072;2022-10-16T10:09:14;2.38;;;1.60;;
59514;SDS011;46082;43.034;-0.072;2022-10-16T10:16:43;1.02;;;0.93;;
59514;SDS011;46082;43.034;-0.072;2022-10-16T10:19:20;1.67;;;1.30;;
59514;SDS011;46082;43.034;-0.072;2022-10-16T10:21:46;3.40;;;1.00;;
59514;SDS011;46082;43.034;-0.072;2022-10-16T10:24:13;3.28;;;1.20;;
59514;SDS011;46082;43.034;-0.072;2022-10-16T10:26:51;1.10;;;0.90;;
59514;SDS011;46082;43.034;-0.072;2022-10-16T10:29:28;1.33;;;0.93;;
59514;SDS011;46082;43.034;-0.072;2022-10-16T10:35:12;1.90;;;0.90;;
59514;SDS011;46082;43.034;-0.072;2022-10-16T10:37:30;2.15;;;1.25;;
59514;SDS011;46082;43.034;-0.072;2022-10-16T10:40:00;5.55;;;1.60;;
59514;SDS011;46082;43.034;-0.072;2022-10-16T10:42:30;4.50;;;1.60;;
59514;SDS011;46082;43.034;-0.072;2022-10-16T10:45:16;2.35;;;1.27;;
59514;SDS011;46082;43.034;-0.072;2022-10-16T10:47:48;1.40;;;1.30;;
59514;SDS011;46082;43.034;-0.072;2022-10-16T10:53:05;1.77;;;1.20;;
59514;SDS011;46082;43.034;-0.072;2022-10-16T10:58:08;1.88;;;1.63;;
59514;SDS011;46082;43.034;-0.072;2022-10-16T11:00:43;1.25;;;1.10;;
59514;SDS011;46082;43.034;-0.072;2022-10-16T11:05:59;1.88;;;0.73;;
59514;SDS011;46082;43.034;-0.072;2022-10-16T11:08:39;1.65;;;1.02;;
59514;SDS011;46082;43.034;-0.072;2022-10-16T11:11:23;1.70;;;1.30;;
59514;SDS011;46082;43.034;-0.072;2022-10-16T11:18:52;1.40;;;1.13;;
59514;SDS011;46082;43.034;-0.072;2022-10-16T11:21:20;2.33;;;0.90;;
59514;SDS011;46082;43.034;-0.072;2022-10-16T11:26:17;1.00;;;0.90;;
59514;SDS011;46082;43.034;-0.072;2022-10-16T11:28:46;1.17;;;1.10;;
59514;SDS011;46082;43.034;-0.072;2022-10-16T11:33:40;1.48;;;1.05;;
59514;SDS011;46082;43.034;-0.072;2022-10-16T11:36:21;1.10;;;0.90;;
59514;SDS011;46082;43.034;-0.072;2022-10-16T11:41:27;2.13;;;0.73;;
59514;SDS011;46082;43.034;-0.072;2022-10-16T11:46:29;1.73;;;0.77;;
59514;SDS011;46082;43.034;-0.072;2022-10-16T11:56:37;0.88;;;0.70;;
59514;SDS011;46082;43.034;-0.072;2022-10-16T11:59:26;1.30;;;0.88;;
59514;SDS011;46082;43.034;-0.072;2022-10-16T12:01:57;0.65;;;0.65;;
59514;SDS011;46082;43.034;-0.072;2022-10-16T12:04:49;0.98;;;0.57;;
59514;SDS011;46082;43.034;-0.072;2022-10-16T12:07:13;0.60;;;0.60;;
59514;SDS011;46082;43.034;-0.072;2022-10-16T12:09:40;1.42;;;0.82;;
59514;SDS011;46082;43.034;-0.072;2022-10-16T12:12:25;1.77;;;0.60;;
59514;SDS011;46082;43.034;-0.072;2022-10-16T12:15:02;0.70;;;0.70;;
59514;SDS011;46082;43.034;-0.072;2022-10-16T12:17:36;3.20;;;0.73;;
59514;SDS011;46082;43.034;-0.072;2022-10-16T12:25:31;1.70;;;0.80;;
59514;SDS011;46082;43.034;-0.072;2022-10-16T12:27:59;3.05;;;0.85;;
59514;SDS011;46082;43.034;-0.072;2022-10-16T12:30:26;1.90;;;1.35;;
59514;SDS011;46082;43.034;-0.072;2022-10-16T12:32:56;1.60;;;0.90;;
59514;SDS011;46082;43.034;-0.072;2022-10-16T12:35:25;0.93;;;0.70;;
59514;SDS011;46082;43.034;-0.072;2022-10-16T12:37:52;0.65;;;0.65;;
59514;SDS011;46082;43.034;-0.072;2022-10-16T12:40:28;2.72;;;0.70;;
59514;SDS011;46082;43.034;-0.072;2022-10-16T12:42:55;0.60;;;0.60;;
59514;SDS011;46082;43.034;-0.072;2022-10-16T12:45:29;0.95;;;0.95;;
59514;SDS011;46082;43.034;-0.072;2022-10-16T12:47:56;2.10;;;0.68;;
59514;SDS011;46082;43.034;-0.072;2022-10-16T12:50:24;1.08;;;0.95;;
59514;SDS011;46082;43.034;-0.072;2022-10-16T12:52:50;3.42;;;0.68;;
59514;SDS011;46082;43.034;-0.072;2022-10-16T12:55:17;0.85;;;0.68;;
59514;SDS011;46082;43.034;-0.072;2022-10-16T13:02:51;0.70;;;0.70;;
59514;SDS011;46082;43.034;-0.072;2022-10-16T13:05:30;2.20;;;0.80;;
59514;SDS011;46082;43.034;-0.072;2022-10-16T13:24:17;1.48;;;0.85;;
59514;SDS011;46082;43.034;-0.072;2022-10-16T13:26:25;3.00;;;0.77;;
59514;SDS011;46082;43.034;-0.072;2022-10-16T13:28:59;2.50;;;0.75;;
59514;SDS011;46082;43.034;-0.072;2022-10-16T13:31:26;2.30;;;1.10;;
59514;SDS011;46082;43.034;-0.072;2022-10-16T13:33:54;1.55;;;0.82;;
59514;SDS011;46082;43.034;-0.072;2022-10-16T13:36:28;0.82;;;0.68;;
59514;SDS011;46082;43.034;-0.072;2022-10-16T13:39:06;0.75;;;0.75;;
59514;SDS011;46082;43.034;-0.072;2022-10-16T13:41:32;3.25;;;0.60;;
59514;SDS011;46082;43.034;-0.072;2022-10-16T13:43:59;0.85;;;0.80;;
59514;SDS011;46082;43.034;-0.072;2022-10-16T13:46:25;3.22;;;0.88;;
59514;SDS011;46082;43.034;-0.072;2022-10-16T13:48:58;0.52;;;0.52;;
59514;SDS011;46082;43.034;-0.072;2022-10-16T13:51:25;2.80;;;0.70;;
59514;SDS011;46082;43.034;-0.072;2022-10-16T13:53:51;0.57;;;0.57;;
59514;SDS011;46082;43.034;-0.072;2022-10-16T13:56:19;0.70;;;0.70;;
59514;SDS011;46082;43.034;-0.072;2022-10-16T13:58:45;1.27;;;0.88;;
59514;SDS011;46082;43.034;-0.072;2022-10-16T14:01:16;1.40;;;0.73;;
59514;SDS011;46082;43.034;-0.072;2022-10-16T14:03:44;0.85;;;0.65;;
59514;SDS011;46082;43.034;-0.072;2022-10-16T14:06:14;1.90;;;0.90;;
59514;SDS011;46082;43.034;-0.072;2022-10-16T14:08:45;0.82;;;0.70;;
59514;SDS011;46082;43.034;-0.072;2022-10-16T14:13:46;0.52;;;0.50;;
59514;SDS011;46082;43.034;-0.072;2022-10-16T14:16:31;1.70;;;0.80;;
59514;SDS011;46082;43.034;-0.072;2022-10-16T14:19:02;2.25;;;0.80;;
59514;SDS011;46082;43.034;-0.072;2022-10-16T14:21:31;3.15;;;1.17;;
59514;SDS011;46082;43.034;-0.072;2022-10-16T14:23:57;0.93;;;0.73;;
59514;SDS011;46082;43.034;-0.072;2022-10-16T14:26:24;1.23;;;0.95;;
59514;SDS011;46082;43.034;-0.072;2022-10-16T14:29:03;1.10;;;0.85;;
59514;SDS011;46082;43.034;-0.072;2022-10-16T14:31:31;2.10;;;0.77;;
59514;SDS011;46082;43.034;-0.072;2022-10-16T14:33:58;1.15;;;1.00;;
59514;SDS011;46082;43.034;-0.072;2022-10-16T14:36:25;0.82;;;0.65;;
59514;SDS011;46082;43.034;-0.072;2022-10-16T14:41:25;4.38;;;0.98;;
59514;SDS011;46082;43.034;-0.072;2022-10-16T14:43:55;2.45;;;0.85;;
59514;SDS011;46082;43.034;-0.072;2022-10-16T14:46:23;1.50;;;0.70;;
59514;SDS011;46082;43.034;-0.072;2022-10-16T14:49:00;1.15;;;0.75;;
59514;SDS011;46082;43.034;-0.072;2022-10-16T14:51:27;1.05;;;0.70;;
59514;SDS011;46082;43.034;-0.072;2022-10-16T14:53:53;1.15;;;0.70;;
59514;SDS011;46082;43.034;-0.072;2022-10-16T14:56:20;0.82;;;0.68;;
59514;SDS011;46082;43.034;-0.072;2022-10-16T14:58:47;1.13;;;0.70;;
59514;SDS011;46082;43.034;-0.072;2022-10-16T15:01:13;0.70;;;0.70;;
59514;SDS011;46082;43.034;-0.072;2022-10-16T15:03:39;1.25;;;0.60;;
59514;SDS011;46082;43.034;-0.072;2022-10-16T15:06:12;0.85;;;0.70;;
59514;SDS011;46082;43.034;-0.072;2022-10-16T15:08:39;0.93;;;0.90;;
59514;SDS011;46082;43.034;-0.072;2022-10-16T15:11:05;1.83;;;0.73;;
59514;SDS011;46082;43.034;-0.072;2022-10-16T15:13:35;1.05;;;1.00;;
59514;SDS011;46082;43.034;-0.072;2022-10-16T15:16:01;1.52;;;0.77;;
59514;SDS011;46082;43.034;-0.072;2022-10-16T15:18:27;0.70;;;0.70;;
59514;SDS011;46082;43.034;-0.072;2022-10-16T15:20:53;2.05;;;1.10;;
59514;SDS011;46082;43.034;-0.072;2022-10-16T15:23:20;1.08;;;1.00;;
59514;SDS011;46082;43.034;-0.072;2022-10-16T15:25:48;1.38;;;1.27;;
59514;SDS011;46082;43.034;-0.072;2022-10-16T15:28:14;2.85;;;1.00;;
59514;SDS011;46082;43.034;-0.072;2022-10-16T15:30:41;2.97;;;0.90;;
59514;SDS011;46082;43.034;-0.072;2022-10-16T15:33:13;3.33;;;1.30;;
59514;SDS011;46082;43.034;-0.072;2022-10-16T15:35:40;1.52;;;0.77;;
59514;SDS011;46082;43.034;-0.072;2022-10-16T15:38:06;0.70;;;0.70;;
59514;SDS011;46082;43.034;-0.072;2022-10-16T15:40:32;3.33;;;1.10;;
59514;SDS011;46082;43.034;-0.072;2022-10-16T15:42:59;2.70;;;1.13;;
59514;SDS011;46082;43.034;-0.072;2022-10-16T15:45:25;1.20;;;1.00;;
59514;SDS011;46082;43.034;-0.072;2022-10-16T15:47:51;1.33;;;0.90;;
59514;SDS011;46082;43.034;-0.072;2022-10-16T15:50:17;1.05;;;0.90;;
59514;SDS011;46082;43.034;-0.072;2022-10-16T15:52:43;1.00;;;1.00;;
59514;SDS011;46082;43.034;-0.072;2022-10-16T15:55:10;0.98;;;0.98;;
59514;SDS011;46082;43.034;-0.072;2022-10-16T15:57:37;1.27;;;1.17;;
59514;SDS011;46082;43.034;-0.072;2022-10-16T16:00:09;1.55;;;1.08;;
59514;SDS011;46082;43.034;-0.072;2022-10-16T16:02:35;1.20;;;1.10;;
59514;SDS011;46082;43.034;-0.072;2022-10-16T16:05:01;1.27;;;0.93;;
59514;SDS011;46082;43.034;-0.072;2022-10-16T16:07:28;1.15;;;0.90;;
59514;SDS011;46082;43.034;-0.072;2022-10-16T16:09:54;0.88;;;0.88;;
59514;SDS011;46082;43.034;-0.072;2022-10-16T16:12:20;2.33;;;1.10;;
59514;SDS011;46082;43.034;-0.072;2022-10-16T16:14:47;1.08;;;0.90;;
59514;SDS011;46082;43.034;-0.072;2022-10-16T16:17:14;1.40;;;1.08;;
59514;SDS011;46082;43.034;-0.072;2022-10-16T16:19:40;1.02;;;0.90;;
59514;SDS011;46082;43.034;-0.072;2022-10-16T16:22:06;0.95;;;0.90;;
59514;SDS011;46082;43.034;-0.072;2022-10-16T16:24:32;0.95;;;0.93;;
59514;SDS011;46082;43.034;-0.072;2022-10-16T16:26:59;2.42;;;0.98;;
59514;SDS011;46082;43.034;-0.072;2022-10-16T16:29:25;2.03;;;1.10;;
59514;SDS011;46082;43.034;-0.072;2022-10-16T16:31:51;2.45;;;1.10;;